Time;durP1;ratioP1;P1;durP2;ratioP2;P2;SDS_P1;SDS_P2;PMS_P1;PMS_P2;Temp;Humidity;BMP_temperature;BMP_pressure;BME280_temperature;BME280_humidity;BME280_pressure;Samples;Min_cycle;Max_cycle;Signal;HPM_P1;HPM_P2
2022/03/31 00:00:51;;;;;;;23.60;16.13;;;6.80;99.90;;;;;;5113572;28;20578;-92
2022/03/31 00:03:21;;;;;;;25.27;15.83;;;6.80;99.90;;;;;;5054594;28;21020;-93
2022/03/31 00:05:50;;;;;;;26.90;18.00;;;6.80;99.90;;;;;;5054850;28;20442;-91
2022/03/31 00:08:19;;;;;;;27.83;16.90;;;6.80;99.90;;;;;;5050972;28;20457;-90
2022/03/31 00:10:47;;;;;;;22.23;15.70;;;6.80;99.90;;;;;;5055002;28;20427;-90
2022/03/31 00:13:17;;;;;;;25.20;17.17;;;6.90;99.90;;;;;;5022160;28;20457;-91
2022/03/31 00:15:44;;;;;;;27.63;17.20;;;;;;;;;;5074530;28;20445;-91
2022/03/31 00:18:14;;;;;;;23.13;15.40;;;6.90;99.90;;;;;;5061887;28;20450;-90
2022/03/31 00:20:41;;;;;;;23.90;16.87;;;;;;;;;;5032522;28;20568;-90
2022/03/31 00:23:09;;;;;;;23.63;16.30;;;;;;;;;;5112509;28;20459;-90
2022/03/31 00:25:36;;;;;;;20.53;16.07;;;;;;;;;;5116936;28;20451;-91
2022/03/31 00:28:04;;;;;;;21.30;15.43;;;6.80;99.90;;;;;;5117320;28;20432;-91
2022/03/31 00:30:32;;;;;;;21.83;15.73;;;6.80;99.90;;;;;;5113122;28;20489;-92
2022/03/31 00:32:59;;;;;;;23.97;16.57;;;;;;;;;;5109531;28;20450;-89
2022/03/31 00:35:27;;;;;;;27.50;16.00;;;;;;;;;;5111630;28;20484;-89
2022/03/31 00:37:55;;;;;;;24.07;15.67;;;;;;;;;;5116644;28;20432;-91
2022/03/31 00:40:22;;;;;;;27.00;16.80;;;6.80;99.90;;;;;;5116770;28;20490;-91
2022/03/31 00:42:51;;;;;;;22.23;15.80;;;6.80;99.90;;;;;;5113547;28;20441;-92
2022/03/31 00:45:19;;;;;;;23.07;16.53;;;6.70;99.90;;;;;;5114521;28;20543;-90
2022/03/31 00:47:47;;;;;;;23.63;16.70;;;;;;;;;;5064381;28;20439;-92
2022/03/31 00:50:15;;;;;;;25.60;16.23;;;6.70;99.90;;;;;;5112351;28;20486;-91
2022/03/31 00:52:44;;;;;;;22.77;15.90;;;6.70;99.90;;;;;;5113659;28;20440;-90
2022/03/31 00:55:12;;;;;;;21.17;16.00;;;6.60;99.90;;;;;;5053684;28;20445;-89
2022/03/31 00:57:40;;;;;;;23.30;15.67;;;;;;;;;;5033769;28;20558;-89
2022/03/31 01:00:10;;;;;;;22.83;15.60;;;6.60;99.90;;;;;;5052201;28;20826;-90
2022/03/31 01:02:38;;;;;;;26.13;16.50;;;6.60;99.90;;;;;;5053643;28;20957;-91
2022/03/31 01:05:06;;;;;;;23.43;16.50;;;6.60;99.90;;;;;;5051525;28;20447;-90
2022/03/31 01:07:35;;;;;;;22.90;16.73;;;6.60;99.90;;;;;;5055067;28;20810;-91
2022/03/31 01:10:05;;;;;;;22.90;16.17;;;6.60;99.90;;;;;;5051211;28;20442;-90
2022/03/31 01:12:32;;;;;;;21.43;15.70;;;;;;;;;;5063640;28;20448;-92
2022/03/31 01:15:11;;;;;;;21.83;14.80;;;6.60;99.90;;;;;;5112237;28;20546;-92
2022/03/31 01:17:39;;;;;;;21.47;16.30;;;6.60;99.90;;;;;;5116034;28;20443;-90
2022/03/31 01:20:08;;;;;;;24.63;15.80;;;6.70;99.90;;;;;;5110839;28;20444;-90
2022/03/31 01:22:36;;;;;;;26.63;17.60;;;6.60;99.90;;;;;;5115718;28;20451;-91
2022/03/31 01:25:06;;;;;;;28.23;18.50;;;6.60;99.90;;;;;;5063606;28;20450;-91
2022/03/31 01:27:35;;;;;;;28.93;16.73;;;6.60;99.90;;;;;;5115983;28;20448;-91
2022/03/31 01:30:02;;;;;;;24.40;16.23;;;;;;;;;;5109824;28;20448;-93
2022/03/31 01:32:29;;;;;;;24.73;15.87;;;;;;;;;;5116710;28;20424;-92
2022/03/31 01:34:57;;;;;;;26.77;15.70;;;;;;;;;;5113435;28;20435;-91
2022/03/31 01:37:25;;;;;;;20.77;15.13;;;;;;;;;;5115971;28;20843;-91
2022/03/31 01:39:52;;;;;;;26.63;16.10;;;;;;;;;;5116401;28;20808;-90
2022/03/31 01:42:22;;;;;;;25.43;17.17;;;6.60;99.90;;;;;;5116332;28;20990;-91
2022/03/31 01:44:49;;;;;;;24.30;17.50;;;;;;;;;;5114964;28;20444;-91
2022/03/31 01:47:16;;;;;;;23.83;17.73;;;;;;;;;;5116263;28;20444;-90
2022/03/31 01:49:44;;;;;;;24.93;15.30;;;;;;;;;;5115352;28;20497;-90
2022/03/31 01:52:11;;;;;;;25.50;16.70;;;;;;;;;;5111329;28;20458;-89
2022/03/31 01:54:38;;;;;;;24.30;16.93;;;;;;;;;;5116387;28;20943;-91
2022/03/31 01:57:08;;;;;;;23.90;17.17;;;6.40;99.90;;;;;;5112273;28;20541;-89
2022/03/31 01:59:38;;;;;;;20.40;15.40;;;6.40;99.90;;;;;;5115228;28;20451;-92
2022/03/31 02:02:05;;;;;;;22.77;14.70;;;6.40;99.90;;;;;;5115826;28;20503;-90
2022/03/31 02:04:32;;;;;;;20.70;14.50;;;;;;;;;;5115728;28;20447;-89
2022/03/31 02:07:00;;;;;;;20.00;14.07;;;;;;;;;;5115090;28;20455;-91
2022/03/31 02:09:28;;;;;;;20.73;15.00;;;;;;;;;;5112160;28;20472;-91
2022/03/31 02:11:57;;;;;;;22.70;14.70;;;;;;;;;;5115145;28;20443;-91
2022/03/31 02:14:25;;;;;;;21.83;15.10;;;;;;;;;;5106520;28;20452;-92
2022/03/31 02:16:55;;;;;;;19.57;13.53;;;;;;;;;;5112645;28;20432;-89
2022/03/31 02:19:22;;;;;;;21.40;14.57;;;;;;;;;;5115342;28;20451;-89
2022/03/31 02:21:50;;;;;;;17.40;12.63;;;6.30;99.90;;;;;;5114402;28;20504;-92
2022/03/31 02:24:17;;;;;;;17.67;12.40;;;;;;;;;;5107347;28;20775;-90
2022/03/31 02:26:45;;;;;;;20.70;13.40;;;;;;;;;;5114725;28;20443;-91
2022/03/31 02:29:13;;;;;;;19.70;14.13;;;;;;;;;;5114515;28;20811;-91
2022/03/31 02:31:40;;;;;;;18.17;12.73;;;;;;;;;;5115368;28;20525;-90
2022/03/31 02:34:08;;;;;;;22.53;14.17;;;6.30;99.90;;;;;;5111984;28;20439;-90
2022/03/31 02:36:35;;;;;;;19.87;13.90;;;;;;;;;;5115041;28;20455;-93
2022/03/31 02:39:02;;;;;;;15.63;12.50;;;;;;;;;;5115167;28;20443;-89
2022/03/31 02:41:29;;;;;;;21.90;13.80;;;;;;;;;;5114898;28;20514;-89
2022/03/31 02:43:57;;;;;;;19.50;14.57;;;;;;;;;;5114025;28;20466;-91
2022/03/31 02:46:25;;;;;;;21.13;13.53;;;;;;;;;;5132416;27;20436;-91
2022/03/31 02:48:53;;;;;;;19.10;13.73;;;;;;;;;;5134038;27;20480;-91
2022/03/31 02:51:21;;;;;;;16.27;12.23;;;6.30;99.90;;;;;;5110933;28;20515;-90
2022/03/31 02:56:33;;;;;;;18.57;13.03;;;;;;;;;;5113806;28;20490;-91
2022/03/31 02:59:01;;;;;;;18.97;13.63;;;6.30;99.90;;;;;;5107443;28;20452;-90
2022/03/31 03:01:29;;;;;;;19.43;13.60;;;;;;;;;;5109357;28;20506;-90
2022/03/31 03:03:57;;;;;;;18.90;13.57;;;;;;;;;;5113941;28;20452;-90
2022/03/31 03:06:26;;;;;;;19.03;14.23;;;;;;;;;;5114051;28;20436;-91
2022/03/31 03:08:54;;;;;;;18.90;14.23;;;;;;;;;;5115192;28;20432;-91
2022/03/31 03:11:22;;;;;;;21.53;14.33;;;;;;;;;;5118502;28;20454;-91
2022/03/31 03:13:50;;;;;;;17.10;12.70;;;6.30;99.90;;;;;;5117012;28;20534;-91
2022/03/31 03:16:17;;;;;;;19.30;14.03;;;;;;;;;;5117965;28;21104;-90
2022/03/31 03:18:44;;;;;;;19.57;14.47;;;;;;;;;;5114938;28;20444;-89
2022/03/31 03:21:11;;;;;;;19.33;14.20;;;;;;;;;;5118260;28;20476;-91
2022/03/31 03:23:40;;;;;;;20.30;14.90;;;6.20;99.90;;;;;;5118132;28;20462;-91
2022/03/31 03:26:08;;;;;;;19.77;15.23;;;6.20;99.90;;;;;;5115012;28;20439;-91
2022/03/31 03:28:37;;;;;;;20.67;14.43;;;6.20;99.90;;;;;;5118019;28;20583;-92
2022/03/31 03:31:04;;;;;;;16.97;13.73;;;;;;;;;;5117349;28;20447;-93
2022/03/31 03:33:32;;;;;;;23.13;14.50;;;;;;;;;;5117910;28;20450;-90
2022/03/31 03:35:59;;;;;;;21.23;14.83;;;;;;;;;;5114554;28;20841;-90
2022/03/31 03:38:27;;;;;;;21.80;14.93;;;;;;;;;;5112697;28;20447;-92
2022/03/31 03:40:55;;;;;;;17.17;13.60;;;;;;;;;;5117493;28;20436;-89
2022/03/31 03:43:23;;;;;;;19.70;15.30;;;;;;;;;;5117233;28;20451;-89
2022/03/31 03:45:50;;;;;;;21.20;15.83;;;;;;;;;;5112516;28;20447;-91
2022/03/31 03:48:17;;;;;;;18.43;14.70;;;;;;;;;;5117268;28;20470;-90
2022/03/31 03:50:44;;;;;;;24.70;16.63;;;;;;;;;;5113966;28;20882;-90
2022/03/31 03:53:12;;;;;;;23.00;15.20;;;;;;;;;;5114060;28;20439;-91
2022/03/31 03:55:39;;;;;;;18.83;15.17;;;;;;;;;;5117571;28;20557;-90
2022/03/31 03:58:08;;;;;;;20.80;15.43;;;5.80;99.90;;;;;;5117426;28;20436;-90
2022/03/31 04:00:35;;;;;;;21.37;15.70;;;;;;;;;;5078292;28;20440;-90
2022/03/31 04:03:02;;;;;;;22.20;15.67;;;;;;;;;;5117157;28;20496;-89
2022/03/31 04:05:30;;;;;;;20.20;15.77;;;;;;;;;;5111439;28;20452;-89
2022/03/31 04:07:57;;;;;;;23.33;16.47;;;;;;;;;;5111291;28;20424;-90
2022/03/31 04:10:24;;;;;;;24.83;16.37;;;;;;;;;;5116911;28;20838;-90
2022/03/31 04:12:51;;;;;;;21.90;15.40;;;;;;;;;;5116909;28;20443;-91
2022/03/31 04:15:19;;;;;;;19.70;15.50;;;5.70;99.90;;;;;;5113096;28;20432;-90
2022/03/31 04:17:47;;;;;;;22.93;17.50;;;;;;;;;;5064054;28;20974;-90
2022/03/31 04:20:15;;;;;;;18.40;15.83;;;5.70;99.90;;;;;;5113474;28;20438;-89
2022/03/31 04:22:42;;;;;;;20.37;16.07;;;;;;;;;;5113248;28;20487;-89
2022/03/31 04:25:11;;;;;;;26.30;16.37;;;5.60;99.90;;;;;;5116461;28;20452;-92
2022/03/31 04:27:39;;;;;;;25.33;16.63;;;5.70;99.90;;;;;;5116385;28;20448;-91
2022/03/31 04:30:10;;;;;;;24.20;17.80;;;5.80;99.90;;;;;;5112626;28;20448;-92
2022/03/31 04:32:39;;;;;;;23.07;17.57;;;5.60;99.90;;;;;;5110531;28;20447;-93
2022/03/31 04:35:07;;;;;;;23.73;16.70;;;5.60;99.90;;;;;;5116651;28;20448;-93
2022/03/31 04:37:34;;;;;;;26.97;18.07;;;;;;;;;;5116658;28;20464;-91
2022/03/31 04:40:02;;;;;;;24.03;18.57;;;;;;;;;;5117007;28;20440;-90
2022/03/31 04:42:30;;;;;;;23.27;17.03;;;;;;;;;;5115540;28;20491;-92
2022/03/31 04:44:57;;;;;;;24.17;18.77;;;;;;;;;;5114613;28;20444;-91
2022/03/31 04:47:24;;;;;;;24.73;18.27;;;;;;;;;;5113717;28;20470;-93
2022/03/31 04:49:53;;;;;;;28.50;18.67;;;;;;;;;;5113207;28;20838;-90
2022/03/31 04:52:20;;;;;;;24.07;18.17;;;;;;;;;;5116569;28;20452;-91
2022/03/31 04:54:47;;;;;;;25.70;19.20;;;;;;;;;;5114166;28;20444;-93
2022/03/31 04:57:16;;;;;;;24.53;18.73;;;5.50;99.90;;;;;;5117069;28;20831;-92
2022/03/31 04:59:43;;;;;;;24.47;18.47;;;;;;;;;;5060836;28;20444;-91
2022/03/31 05:02:11;;;;;;;27.07;18.33;;;;;;;;;;5116354;28;20472;-91
2022/03/31 05:04:38;;;;;;;23.57;18.37;;;;;;;;;;5116442;28;20448;-91
2022/03/31 05:07:08;;;;;;;23.33;17.43;;;5.40;99.90;;;;;;5113544;28;20787;-94
2022/03/31 05:09:35;;;;;;;24.93;17.33;;;;;;;;;;5115913;28;20505;-92
2022/03/31 05:12:02;;;;;;;28.10;18.70;;;;;;;;;;5116560;28;20447;-92
2022/03/31 05:14:29;;;;;;;25.40;18.33;;;;;;;;;;5115634;28;20444;-91
2022/03/31 05:16:58;;;;;;;25.70;19.30;;;;;;;;;;5114396;28;20961;-93
2022/03/31 05:19:25;;;;;;;29.00;19.57;;;;;;;;;;5117212;28;20523;-91
2022/03/31 05:21:53;;;;;;;26.77;19.30;;;;;;;;;;5113619;28;20468;-92
2022/03/31 05:24:21;;;;;;;22.77;17.90;;;5.30;99.90;;;;;;5115658;28;20447;-92
2022/03/31 05:26:50;;;;;;;23.47;17.63;;;;;;;;;;5112513;28;20452;-93
2022/03/31 05:29:18;;;;;;;23.80;17.20;;;;;;;;;;5111562;28;20452;-91
2022/03/31 05:31:45;;;;;;;22.97;17.63;;;;;;;;;;5112728;28;20822;-94
2022/03/31 05:34:12;;;;;;;25.40;17.53;;;;;;;;;;5109938;28;20485;-91
2022/03/31 05:36:40;;;;;;;26.40;17.13;;;;;;;;;;5112998;28;20444;-92
2022/03/31 05:39:07;;;;;;;21.77;16.70;;;;;;;;;;5115787;28;20451;-92
2022/03/31 05:41:35;;;;;;;22.13;17.83;;;5.20;99.90;;;;;;5110504;28;20452;-91
2022/03/31 05:44:02;;;;;;;27.10;18.60;;;;;;;;;;5109247;28;20444;-94
2022/03/31 05:46:30;;;;;;;23.83;17.73;;;;;;;;;;5115287;28;20451;-94
2022/03/31 05:48:57;;;;;;;20.67;16.83;;;;;;;;;;5114750;27;20452;-92
2022/03/31 05:51:24;;;;;;;23.87;18.07;;;;;;;;;;5112330;28;20470;-93
2022/03/31 05:53:51;;;;;;;29.23;19.00;;;;;;;;;;5115324;28;20436;-93
2022/03/31 05:56:18;;;;;;;28.37;19.30;;;;;;;;;;5115070;28;20452;-93
2022/03/31 05:58:46;;;;;;;27.97;19.40;;;;;;;;;;5109536;28;20428;-92
2022/03/31 06:01:14;;;;;;;26.43;18.53;;;;;;;;;;5114776;28;20444;-91
2022/03/31 06:03:41;;;;;;;24.03;18.00;;;;;;;;;;5115122;28;20520;-93
2022/03/31 06:06:08;;;;;;;26.33;18.93;;;;;;;;;;5111388;28;20814;-93
2022/03/31 06:08:35;;;;;;;21.20;17.10;;;;;;;;;;5109934;28;20935;-92
2022/03/31 06:11:02;;;;;;;25.83;18.00;;;;;;;;;;5112638;28;20843;-92
2022/03/31 06:13:29;;;;;;;22.63;17.20;;;;;;;;;;5112726;28;20448;-92
2022/03/31 06:15:58;;;;;;;26.10;18.37;;;;;;;;;;5109556;28;20436;-92
2022/03/31 06:18:26;;;;;;;22.47;16.67;;;;;;;;;;5112077;28;20801;-92
2022/03/31 06:20:53;;;;;;;24.77;17.50;;;;;;;;;;5112118;28;20440;-93
2022/03/31 06:23:22;;;;;;;24.00;18.60;;;;;;;;;;5115247;28;20488;-93
2022/03/31 06:25:49;;;;;;;22.23;17.23;;;;;;;;;;5110678;28;20466;-92
2022/03/31 06:28:17;;;;;;;28.47;19.60;;;;;;;;;;5107833;28;20451;-94
2022/03/31 06:30:44;;;;;;;22.80;17.60;;;;;;;;;;5112207;28;20489;-93
2022/03/31 06:33:15;;;;;;;25.77;18.87;;;5.50;99.90;;;;;;5111766;28;20448;-92
2022/03/31 06:35:42;;;;;;;21.40;17.10;;;;;;;;;;5118667;28;20432;-93
2022/03/31 06:38:11;;;;;;;22.23;17.57;;;;;;;;;;5115793;28;20504;-93
2022/03/31 06:40:38;;;;;;;22.17;17.80;;;;;;;;;;5111245;28;20436;-93
2022/03/31 06:43:06;;;;;;;19.97;15.90;;;5.60;99.90;;;;;;5107476;28;20468;-92
2022/03/31 06:45:34;;;;;;;19.20;15.27;;;;;;;;;;5114421;28;20464;-92
2022/03/31 06:48:04;;;;;;;21.60;16.47;;;5.70;99.90;;;;;;5110559;28;20475;-92
2022/03/31 06:50:33;;;;;;;22.57;17.87;;;5.80;99.90;;;;;;5114119;28;20487;-92
2022/03/31 06:53:00;;;;;;;24.80;16.83;;;;;;;;;;5115241;28;20830;-90
2022/03/31 06:55:28;;;;;;;20.87;16.20;;;;;;;;;;5111161;28;20439;-94
2022/03/31 06:57:55;;;;;;;34.60;19.37;;;;;;;;;;5109131;28;20448;-94
2022/03/31 07:00:22;;;;;;;26.37;17.80;;;;;;;;;;5114381;28;20447;-92
2022/03/31 07:02:50;;;;;;;27.03;18.10;;;;;;;;;;5115173;28;20581;-94
2022/03/31 07:05:17;;;;;;;24.27;17.47;;;;;;;;;;5114536;28;20818;-93
2022/03/31 07:07:45;;;;;;;22.87;17.00;;;;;;;;;;5110354;28;20440;-93
2022/03/31 07:10:13;;;;;;;22.10;17.50;;;;;;;;;;5112137;28;20822;-93
2022/03/31 07:12:40;;;;;;;23.30;17.37;;;;;;;;;;5053316;28;20447;-92
2022/03/31 07:15:08;;;;;;;23.93;18.67;;;5.80;99.90;;;;;;5046820;28;20442;-93
2022/03/31 07:17:35;;;;;;;21.00;16.60;;;;;;;;;;5049627;28;20446;-93
2022/03/31 07:20:03;;;;;;;21.13;16.80;;;;;;;;;;5050057;28;20467;-90
2022/03/31 07:22:30;;;;;;;22.60;17.57;;;;;;;;;;5048959;28;20474;-93
2022/03/31 07:24:59;;;;;;;22.13;16.53;;;;;;;;;;5051227;28;20455;-91
2022/03/31 07:27:26;;;;;;;25.93;20.70;;;;;;;;;;5053376;28;20452;-93
2022/03/31 07:29:53;;;;;;;26.23;21.77;;;;;;;;;;5054127;28;20497;-94
2022/03/31 07:32:21;;;;;;;20.77;16.80;;;;;;;;;;5053567;28;20570;-94
2022/03/31 07:34:48;;;;;;;23.40;18.47;;;;;;;;;;5058544;28;20463;-94
2022/03/31 07:37:15;;;;;;;25.53;19.00;;;;;;;;;;5083405;28;20484;-93
2022/03/31 07:39:45;;;;;;;21.90;18.40;;;;;;;;;;5122794;28;20446;-94
2022/03/31 07:42:14;;;;;;;22.07;17.13;;;;;;;;;;5118411;28;20451;-95
2022/03/31 07:44:41;;;;;;;24.80;16.50;;;;;;;;;;5116273;28;20450;-94
2022/03/31 07:47:09;;;;;;;21.50;17.20;;;;;;;;;;5117436;28;20486;-93
2022/03/31 07:49:36;;;;;;;22.20;16.77;;;;;;;;;;5115422;28;20563;-94
2022/03/31 07:52:03;;;;;;;21.80;16.07;;;;;;;;;;5113287;28;20481;-94
2022/03/31 07:54:31;;;;;;;24.90;19.00;;;;;;;;;;5124471;28;20464;-95
2022/03/31 07:57:07;;;;;;;23.60;17.07;;;;;;;;;;5126355;27;20462;-95
2022/03/31 07:59:42;;;;;;;20.13;16.00;;;6.40;99.90;;;;;;5122755;28;20466;-93
2022/03/31 08:02:10;;;;;;;22.87;17.37;;;;;;;;;;5116868;28;20443;-94
2022/03/31 08:04:38;;;;;;;24.63;17.80;;;;;;;;;;5116759;28;20462;-95
2022/03/31 08:07:05;;;;;;;22.07;17.90;;;;;;;;;;5118380;28;20448;-95
2022/03/31 08:09:32;;;;;;;24.77;18.37;;;;;;;;;;5118217;28;20610;-94
2022/03/31 08:12:00;;;;;;;20.03;16.10;;;;;;;;;;5123711;28;20864;-92
2022/03/31 08:14:30;;;;;;;20.03;16.43;;;;;;;;;;5118783;28;20451;-95
2022/03/31 08:17:00;;;;;;;20.40;16.10;;;;;;;;;;5119723;27;20459;-94
2022/03/31 08:19:30;;;;;;;26.53;21.63;;;;;;;;;;5121840;27;20451;-94
2022/03/31 08:21:59;;;;;;;26.40;19.50;;;;;;;;;;5121954;28;20456;-95
2022/03/31 08:24:28;;;;;;;24.67;18.87;;;;;;;;;;5118849;28;20494;-93
2022/03/31 08:26:58;;;;;;;21.17;18.33;;;;;;;;;;5117438;27;20939;-92
2022/03/31 08:29:26;;;;;;;22.57;17.43;;;;;;;;;;5118084;28;20559;-95
2022/03/31 08:31:53;;;;;;;20.90;17.07;;;;;;;;;;5119308;28;20497;-93
2022/03/31 08:34:36;;;;;;;24.17;17.43;;;;;;;;;;5119125;28;20501;-95
2022/03/31 08:37:04;;;;;;;26.20;18.77;;;;;;;;;;5118440;28;20452;-95
2022/03/31 08:39:32;;;;;;;21.33;16.00;;;;;;;;;;5117955;27;20486;-93
2022/03/31 08:41:59;;;;;;;24.23;17.10;;;;;;;;;;5117190;28;20851;-90
2022/03/31 08:44:26;;;;;;;21.53;16.57;;;;;;;;;;5115887;27;20495;-91
2022/03/31 08:46:54;;;;;;;21.70;15.57;;;;;;;;;;5115979;28;20471;-90
2022/03/31 08:49:23;;;;;;;23.23;18.50;;;;;;;;;;5112506;28;20531;-90
2022/03/31 08:51:51;;;;;;;29.57;18.80;;;;;;;;;;5116075;28;20448;-90
2022/03/31 08:54:18;;;;;;;29.17;17.50;;;;;;;;;;5104480;27;20463;-91
2022/03/31 08:56:45;;;;;;;23.53;18.50;;;;;;;;;;5095669;28;20534;-91
2022/03/31 08:59:13;;;;;;;27.70;18.13;;;;;;;;;;5092786;28;20467;-91
2022/03/31 09:01:40;;;;;;;22.50;17.87;;;;;;;;;;5095609;28;20472;-89
2022/03/31 09:04:08;;;;;;;24.03;18.47;;;;;;;;;;5096356;28;20475;-92
2022/03/31 09:06:36;;;;;;;26.07;19.03;;;8.70;99.90;;;;;;5094716;28;20464;-90
2022/03/31 09:09:05;;;;;;;25.60;18.67;;;8.30;99.90;;;;;;5091886;28;20449;-93
2022/03/31 09:11:34;;;;;;;22.27;18.27;;;8.40;99.90;;;;;;5092153;28;20482;-92
2022/03/31 09:14:02;;;;;;;22.10;17.53;;;8.60;99.90;;;;;;5047687;28;20456;-93
2022/03/31 09:16:33;;;;;;;20.80;17.80;;;8.70;99.90;;;;;;5102475;28;20472;-95
2022/03/31 09:19:01;;;;;;;22.83;18.70;;;8.90;99.90;;;;;;5100835;28;20453;-93
2022/03/31 09:21:30;;;;;;;20.30;17.83;;;;;;;;;;5095469;28;20437;-95
2022/03/31 09:24:01;;;;;;;21.03;17.37;;;;;;;;;;5108099;28;20500;-95
2022/03/31 09:26:31;;;;;;;25.33;17.70;;;;;;;;;;5103948;28;20479;-95
2022/03/31 09:29:13;;;;;;;20.47;16.80;;;9.10;99.90;;;;;;5101788;28;20460;-95
2022/03/31 09:31:46;;;;;;;22.67;17.30;;;;;;;;;;5128849;22;20482;-96
2022/03/31 09:34:15;;;;;;;26.10;18.60;;;;;;;;;;5107323;28;20501;-92
2022/03/31 09:36:51;;;;;;;22.00;19.07;;;8.60;99.90;;;;;;5122894;28;20523;-95
2022/03/31 09:39:21;;;;;;;25.40;19.90;;;8.70;99.90;;;;;;5118701;28;20460;-94
2022/03/31 09:41:50;;;;;;;25.27;19.40;;;;;;;;;;5120660;28;20485;-94
2022/03/31 09:44:19;;;;;;;27.17;21.67;;;;;;;;;;5117422;28;20494;-94
2022/03/31 09:46:47;;;;;;;27.13;20.67;;;9.70;99.90;;;;;;5124386;28;20468;-94
2022/03/31 09:49:16;;;;;;;24.50;19.60;;;9.40;99.90;;;;;;5118777;27;20458;-88
2022/03/31 09:51:43;;;;;;;24.50;19.50;;;;;;;;;;5115856;28;20456;-90
2022/03/31 09:54:11;;;;;;;25.80;19.13;;;;;;;;;;5094982;28;20968;-89
2022/03/31 09:56:40;;;;;;;27.90;21.17;;;9.80;99.90;;;;;;5094610;28;20448;-89
2022/03/31 09:59:08;;;;;;;29.60;22.37;;;9.80;99.90;;;;;;5093605;28;20471;-90
2022/03/31 10:01:37;;;;;;;30.00;21.93;;;;;;;;;;5092693;28;20459;-92
2022/03/31 10:04:06;;;;;;;32.30;22.03;;;11.00;99.90;;;;;;5095656;28;20499;-91
2022/03/31 10:06:34;;;;;;;27.30;19.33;;;9.90;99.90;;;;;;5095638;28;20457;-93
2022/03/31 10:09:01;;;;;;;23.30;17.37;;;;;;;;;;5096201;28;20455;-91
2022/03/31 10:11:30;;;;;;;23.60;18.17;;;10.40;99.90;;;;;;5095352;28;20440;-91
2022/03/31 10:14:21;;;;;;;22.33;18.53;;;10.70;99.90;;;;;;5092228;28;20449;-93
2022/03/31 10:16:53;;;;;;;20.67;16.10;;;10.30;99.90;;;;;;5095631;28;20437;-91
2022/03/31 10:19:28;;;;;;;24.70;15.27;;;;;;;;;;5092659;28;20880;-90
2022/03/31 10:22:00;;;;;;;22.27;16.43;;;9.70;99.90;;;;;;5096340;28;20789;-90
2022/03/31 10:24:41;;;;;;;33.27;15.50;;;;;;;;;;5095706;28;20835;-91
2022/03/31 10:30:12;;;;;;;21.90;18.27;;;10.60;99.90;;;;;;5140374;22;20484;-93
2022/03/31 10:32:51;;;;;;;19.50;16.07;;;11.00;99.90;;;;;;5114810;22;20489;-92
2022/03/31 10:35:23;;;;;;;17.63;14.60;;;;;;;;;;5097160;22;20488;-94
2022/03/31 10:37:50;;;;;;;19.17;14.40;;;;;;;;;;5090440;28;20430;-93
2022/03/31 10:40:33;;;;;;;21.23;14.33;;;10.70;99.90;;;;;;5127130;22;20487;-94
2022/03/31 10:43:01;;;;;;;22.83;16.70;;;;;;;;;;5140703;22;21363;-92
2022/03/31 10:45:43;;;;;;;18.17;13.97;;;10.90;99.90;;;;;;5146446;22;20531;-93
2022/03/31 10:48:19;;;;;;;18.90;13.83;;;10.80;99.90;;;;;;5070381;28;20485;-92
2022/03/31 10:50:47;;;;;;;20.43;15.00;;;10.30;99.90;;;;;;5070556;28;20407;-93
2022/03/31 10:53:15;;;;;;;18.30;14.10;;;;;;;;;;5106274;22;20489;-94
2022/03/31 10:55:50;;;;;;;19.20;14.73;;;10.30;99.90;;;;;;5115396;22;20490;-94
2022/03/31 10:58:25;;;;;;;20.03;15.93;;;10.10;99.90;;;;;;5110112;28;20436;-93
2022/03/31 11:00:59;;;;;;;22.63;16.13;;;10.30;99.90;;;;;;5119197;22;20865;-93
2022/03/31 11:03:26;;;;;;;21.60;15.90;;;;;;;;;;5110095;28;20465;-93
2022/03/31 11:05:59;;;;;;;20.87;16.70;;;10.30;99.90;;;;;;5130325;22;20444;-91
2022/03/31 11:08:26;;;;;;;22.07;17.50;;;;;;;;;;5043407;28;20933;-92
2022/03/31 11:10:55;;;;;;;22.00;17.53;;;10.30;99.90;;;;;;5074662;28;20779;-88
2022/03/31 11:13:32;;;;;;;19.67;15.90;;;10.40;99.90;;;;;;5074080;28;20457;-90
2022/03/31 11:16:06;;;;;;;27.77;20.57;;;10.40;99.90;;;;;;5072324;28;20477;-93
2022/03/31 11:18:33;;;;;;;23.83;18.30;;;;;;;;;;5045227;28;20448;-94
2022/03/31 11:21:01;;;;;;;27.50;20.53;;;10.50;99.90;;;;;;5054720;28;20451;-92
2022/03/31 11:23:30;;;;;;;20.77;17.17;;;10.60;99.90;;;;;;5054007;28;20555;-93
2022/03/31 11:25:57;;;;;;;19.53;15.20;;;;;;;;;;5054808;28;21024;-92
2022/03/31 11:28:29;;;;;;;21.43;16.17;;;10.30;99.90;;;;;;5055373;28;20502;-91
2022/03/31 11:30:56;;;;;;;23.20;19.20;;;;;;;;;;5055553;28;20457;-92
2022/03/31 11:33:34;;;;;;;21.50;16.17;;;10.60;99.90;;;;;;5058459;28;20435;-94
2022/03/31 11:36:01;;;;;;;19.47;15.67;;;;;;;;;;5058105;28;20441;-91
2022/03/31 11:38:28;;;;;;;23.13;17.03;;;;;;;;;;5057729;28;20451;-93
2022/03/31 11:40:56;;;;;;;23.30;18.57;;;10.40;99.90;;;;;;5057934;28;20442;-90
2022/03/31 11:43:24;;;;;;;23.33;17.93;;;;;;;;;;5058145;28;20449;-92
2022/03/31 11:45:54;;;;;;;19.07;15.57;;;10.20;99.90;;;;;;5056723;28;20994;-92
2022/03/31 11:48:23;;;;;;;21.17;15.30;;;10.30;99.90;;;;;;5057145;28;20810;-90
2022/03/31 11:50:54;;;;;;;20.47;15.33;;;10.10;99.90;;;;;;5057561;28;20453;-90
2022/03/31 11:53:27;;;;;;;24.77;18.33;;;10.20;99.90;;;;;;5057874;28;20516;-93
2022/03/31 11:55:59;;;;;;;24.13;19.50;;;10.20;99.90;;;;;;5055977;28;20454;-90
2022/03/31 11:58:27;;;;;;;26.47;20.27;;;10.50;99.90;;;;;;5058189;28;20465;-89
2022/03/31 12:00:54;;;;;;;23.43;19.10;;;;;;;;;;5060091;28;20454;-88
2022/03/31 12:03:21;;;;;;;23.97;20.73;;;;;;;;;;5058338;28;20934;-88
2022/03/31 12:05:58;;;;;;;29.30;21.47;;;10.90;99.90;;;;;;5057684;28;20451;-88
2022/03/31 12:08:26;;;;;;;23.90;18.80;;;11.00;99.90;;;;;;5077586;28;20445;-92
2022/03/31 12:10:54;;;;;;;23.50;17.57;;;10.70;99.90;;;;;;5079269;28;20445;-92
2022/03/31 12:13:22;;;;;;;24.97;18.90;;;;;;;;;;5079061;28;20441;-95
2022/03/31 12:15:49;;;;;;;23.97;18.00;;;;;;;;;;5079863;28;20438;-92
2022/03/31 12:18:18;;;;;;;25.70;18.77;;;10.20;99.90;;;;;;5078175;28;20442;-91
2022/03/31 12:20:46;;;;;;;20.20;16.20;;;;;;;;;;5077988;28;20514;-91
2022/03/31 12:23:23;;;;;;;22.77;16.80;;;10.30;99.90;;;;;;5081677;28;20434;-91
2022/03/31 12:25:51;;;;;;;21.97;18.00;;;;;;;;;;5058146;28;20490;-93
2022/03/31 12:28:21;;;;;;;24.27;18.53;;;10.00;99.90;;;;;;5061642;28;20497;-96
2022/03/31 12:30:51;;;;;;;28.20;20.37;;;10.20;99.90;;;;;;5057106;28;20450;-93
2022/03/31 12:33:20;;;;;;;24.70;19.63;;;10.10;99.90;;;;;;5060937;28;20450;-91
2022/03/31 12:35:57;;;;;;;27.10;20.00;;;10.10;99.90;;;;;;5071663;28;20446;-92
2022/03/31 12:38:39;;;;;;;25.20;20.37;;;10.10;99.90;;;;;;5066332;28;20450;-92
2022/03/31 12:41:15;;;;;;;20.50;16.60;;;10.20;99.90;;;;;;5061021;28;20451;-94
2022/03/31 12:43:43;;;;;;;23.40;16.17;;;10.20;99.90;;;;;;5054949;28;20474;-93
2022/03/31 12:46:14;;;;;;;24.17;18.17;;;10.50;99.90;;;;;;5060079;28;20467;-94
2022/03/31 12:48:57;;;;;;;24.17;17.87;;;10.30;99.90;;;;;;5062667;28;20457;-93
2022/03/31 12:51:24;;;;;;;27.90;21.87;;;;;;;;;;5059057;28;20458;-90
2022/03/31 12:53:53;;;;;;;21.73;17.17;;;10.40;99.90;;;;;;5060511;28;20459;-92
2022/03/31 12:56:28;;;;;;;24.63;18.00;;;10.30;99.90;;;;;;5066652;28;20518;-95
2022/03/31 12:58:57;;;;;;;19.77;16.60;;;;;;;;;;5064578;28;20442;-93
2022/03/31 13:01:26;;;;;;;25.03;19.43;;;10.10;99.90;;;;;;5062277;28;20450;-91
2022/03/31 13:03:54;;;;;;;21.83;17.00;;;;;;;;;;5066979;28;20452;-92
2022/03/31 13:06:21;;;;;;;21.00;15.97;;;;;;;;;;5079585;28;20522;-90
2022/03/31 13:08:50;;;;;;;98.43;60.00;;;;;;;;;;5071985;28;20447;-93
2022/03/31 13:11:18;;;;;;;40.43;32.97;;;10.00;99.90;;;;;;5057321;28;20481;-90
2022/03/31 13:13:45;;;;;;;20.23;16.57;;;;;;;;;;5055558;28;20427;-92
2022/03/31 13:16:15;;;;;;;22.70;18.80;;;;;;;;;;5055661;28;20443;-93
2022/03/31 13:18:42;;;;;;;24.23;20.03;;;;;;;;;;5059839;28;20473;-90
2022/03/31 13:21:10;;;;;;;22.77;17.97;;;;;;;;;;5057960;28;20970;-89
2022/03/31 13:23:37;;;;;;;23.00;17.43;;;;;;;;;;5061458;28;20450;-90
2022/03/31 13:26:08;;;;;;;22.33;17.40;;;10.50;99.90;;;;;;5062399;28;20876;-91
2022/03/31 13:28:39;;;;;;;22.60;16.83;;;10.60;99.90;;;;;;5057973;28;20450;-88
2022/03/31 13:31:07;;;;;;;21.90;18.10;;;;;;;;;;5059339;28;20462;-89
2022/03/31 13:33:35;;;;;;;23.90;17.60;;;;;;;;;;5057799;28;20450;-86
2022/03/31 13:36:02;;;;;;;20.90;16.80;;;;;;;;;;5056314;28;20454;-85
2022/03/31 13:38:31;;;;;;;23.33;16.93;;;;;;;;;;5054908;28;20443;-86
2022/03/31 13:40:58;;;;;;;22.97;16.80;;;;;;;;;;5055968;28;20496;-90
2022/03/31 13:43:26;;;;;;;21.20;16.10;;;;;;;;;;5057311;28;20815;-89
2022/03/31 13:45:54;;;;;;;20.13;16.13;;;10.20;99.90;;;;;;5055358;28;20491;-85
2022/03/31 13:48:21;;;;;;;21.87;16.73;;;;;;;;;;5055508;28;20496;-86
2022/03/31 13:50:49;;;;;;;21.17;16.27;;;;;;;;;;5055639;28;20803;-86